sensor_id;sensor_type;location;lat;lon;timestamp;P1;durP1;ratioP1;P2;durP2;ratioP2
66143;SDS011;52947;50.842;6.084;2023-04-07T00:02:24;16.48;;;11.18;;
66143;SDS011;52947;50.842;6.084;2023-04-07T00:04:52;21.02;;;12.00;;
66143;SDS011;52947;50.842;6.084;2023-04-07T00:09:49;18.40;;;10.90;;
66143;SDS011;52947;50.842;6.084;2023-04-07T00:12:19;17.73;;;10.88;;
66143;SDS011;52947;50.842;6.084;2023-04-07T00:14:47;18.95;;;10.90;;
66143;SDS011;52947;50.842;6.084;2023-04-07T00:17:15;16.45;;;10.90;;
66143;SDS011;52947;50.842;6.084;2023-04-07T00:19:43;16.88;;;10.93;;
66143;SDS011;52947;50.842;6.084;2023-04-07T00:22:10;17.08;;;10.07;;
66143;SDS011;52947;50.842;6.084;2023-04-07T00:24:38;15.50;;;10.45;;
66143;SDS011;52947;50.842;6.084;2023-04-07T00:27:06;16.92;;;10.43;;
66143;SDS011;52947;50.842;6.084;2023-04-07T00:29:36;18.95;;;10.27;;
66143;SDS011;52947;50.842;6.084;2023-04-07T00:32:03;19.77;;;10.88;;
66143;SDS011;52947;50.842;6.084;2023-04-07T00:34:31;18.70;;;10.38;;
66143;SDS011;52947;50.842;6.084;2023-04-07T00:36:59;18.00;;;10.48;;
66143;SDS011;52947;50.842;6.084;2023-04-07T00:39:27;18.60;;;10.73;;
66143;SDS011;52947;50.842;6.084;2023-04-07T00:41:55;20.45;;;10.90;;
66143;SDS011;52947;50.842;6.084;2023-04-07T00:44:23;20.60;;;10.80;;
66143;SDS011;52947;50.842;6.084;2023-04-07T00:46:52;18.75;;;10.70;;
66143;SDS011;52947;50.842;6.084;2023-04-07T00:49:20;18.42;;;10.48;;
66143;SDS011;52947;50.842;6.084;2023-04-07T00:51:49;17.55;;;10.63;;
66143;SDS011;52947;50.842;6.084;2023-04-07T00:54:17;23.30;;;11.27;;
66143;SDS011;52947;50.842;6.084;2023-04-07T00:56:45;22.40;;;11.75;;
66143;SDS011;52947;50.842;6.084;2023-04-07T00:59:13;23.25;;;12.50;;
66143;SDS011;52947;50.842;6.084;2023-04-07T01:01:43;20.05;;;11.95;;
66143;SDS011;52947;50.842;6.084;2023-04-07T01:04:18;21.77;;;12.90;;
66143;SDS011;52947;50.842;6.084;2023-04-07T01:06:54;22.13;;;12.65;;
66143;SDS011;52947;50.842;6.084;2023-04-07T01:09:34;20.98;;;13.25;;
66143;SDS011;52947;50.842;6.084;2023-04-07T01:12:09;24.67;;;13.40;;
66143;SDS011;52947;50.842;6.084;2023-04-07T01:14:44;26.40;;;13.50;;
66143;SDS011;52947;50.842;6.084;2023-04-07T01:17:41;23.33;;;13.68;;
66143;SDS011;52947;50.842;6.084;2023-04-07T01:20:15;29.42;;;15.40;;
66143;SDS011;52947;50.842;6.084;2023-04-07T01:22:49;28.10;;;14.20;;
66143;SDS011;52947;50.842;6.084;2023-04-07T01:25:22;26.40;;;14.50;;
66143;SDS011;52947;50.842;6.084;2023-04-07T01:28:07;30.13;;;16.15;;
66143;SDS011;52947;50.842;6.084;2023-04-07T01:30:43;30.85;;;15.90;;
66143;SDS011;52947;50.842;6.084;2023-04-07T01:33:12;30.65;;;16.20;;
66143;SDS011;52947;50.842;6.084;2023-04-07T01:35:41;29.15;;;16.25;;
66143;SDS011;52947;50.842;6.084;2023-04-07T01:38:09;30.45;;;16.55;;
66143;SDS011;52947;50.842;6.084;2023-04-07T01:43:07;29.38;;;15.60;;
66143;SDS011;52947;50.842;6.084;2023-04-07T01:45:36;31.45;;;16.25;;
66143;SDS011;52947;50.842;6.084;2023-04-07T01:48:06;30.75;;;16.27;;
66143;SDS011;52947;50.842;6.084;2023-04-07T01:50:35;31.55;;;15.52;;
66143;SDS011;52947;50.842;6.084;2023-04-07T01:53:04;34.50;;;17.27;;
66143;SDS011;52947;50.842;6.084;2023-04-07T01:58:05;29.02;;;16.83;;
66143;SDS011;52947;50.842;6.084;2023-04-07T02:00:36;32.15;;;16.00;;
66143;SDS011;52947;50.842;6.084;2023-04-07T02:03:12;34.60;;;17.00;;
66143;SDS011;52947;50.842;6.084;2023-04-07T02:05:47;31.85;;;16.33;;
66143;SDS011;52947;50.842;6.084;2023-04-07T02:08:21;29.20;;;15.98;;
66143;SDS011;52947;50.842;6.084;2023-04-07T02:10:55;31.35;;;16.15;;
66143;SDS011;52947;50.842;6.084;2023-04-07T02:13:29;27.50;;;16.73;;
66143;SDS011;52947;50.842;6.084;2023-04-07T02:15:59;30.45;;;16.10;;
66143;SDS011;52947;50.842;6.084;2023-04-07T02:18:29;29.33;;;15.40;;
66143;SDS011;52947;50.842;6.084;2023-04-07T02:20:58;28.85;;;15.23;;
66143;SDS011;52947;50.842;6.084;2023-04-07T02:23:28;33.33;;;15.85;;
66143;SDS011;52947;50.842;6.084;2023-04-07T02:25:56;27.95;;;15.52;;
66143;SDS011;52947;50.842;6.084;2023-04-07T02:28:24;32.92;;;16.33;;
66143;SDS011;52947;50.842;6.084;2023-04-07T02:30:52;34.13;;;16.80;;
66143;SDS011;52947;50.842;6.084;2023-04-07T02:33:20;34.40;;;16.60;;
66143;SDS011;52947;50.842;6.084;2023-04-07T02:35:50;27.55;;;15.95;;
66143;SDS011;52947;50.842;6.084;2023-04-07T02:38:19;29.38;;;16.33;;
66143;SDS011;52947;50.842;6.084;2023-04-07T02:40:47;30.88;;;15.68;;
66143;SDS011;52947;50.842;6.084;2023-04-07T02:43:15;34.55;;;17.08;;
66143;SDS011;52947;50.842;6.084;2023-04-07T02:45:44;34.25;;;16.52;;
66143;SDS011;52947;50.842;6.084;2023-04-07T02:48:12;30.90;;;15.48;;
66143;SDS011;52947;50.842;6.084;2023-04-07T02:50:41;35.95;;;15.95;;
66143;SDS011;52947;50.842;6.084;2023-04-07T02:53:11;30.67;;;17.50;;
66143;SDS011;52947;50.842;6.084;2023-04-07T02:55:38;31.25;;;16.52;;
66143;SDS011;52947;50.842;6.084;2023-04-07T02:58:06;35.97;;;16.20;;
66143;SDS011;52947;50.842;6.084;2023-04-07T03:00:39;29.08;;;15.02;;
66143;SDS011;52947;50.842;6.084;2023-04-07T03:03:14;28.23;;;15.35;;
66143;SDS011;52947;50.842;6.084;2023-04-07T03:05:54;31.80;;;16.20;;
66143;SDS011;52947;50.842;6.084;2023-04-07T03:08:25;33.88;;;16.75;;
66143;SDS011;52947;50.842;6.084;2023-04-07T03:10:54;31.05;;;15.63;;
66143;SDS011;52947;50.842;6.084;2023-04-07T03:13:26;28.40;;;15.68;;
66143;SDS011;52947;50.842;6.084;2023-04-07T03:15:56;32.53;;;16.73;;
66143;SDS011;52947;50.842;6.084;2023-04-07T03:18:28;31.45;;;17.95;;
66143;SDS011;52947;50.842;6.084;2023-04-07T03:20:59;30.20;;;16.48;;
66143;SDS011;52947;50.842;6.084;2023-04-07T03:23:28;36.17;;;17.35;;
66143;SDS011;52947;50.842;6.084;2023-04-07T03:25:58;31.65;;;17.23;;
66143;SDS011;52947;50.842;6.084;2023-04-07T03:28:30;35.88;;;16.98;;
66143;SDS011;52947;50.842;6.084;2023-04-07T03:30:59;33.83;;;17.75;;
66143;SDS011;52947;50.842;6.084;2023-04-07T03:33:26;34.03;;;17.08;;
66143;SDS011;52947;50.842;6.084;2023-04-07T03:35:54;32.75;;;17.50;;
66143;SDS011;52947;50.842;6.084;2023-04-07T03:38:23;37.10;;;18.23;;
66143;SDS011;52947;50.842;6.084;2023-04-07T03:40:57;33.30;;;17.58;;
66143;SDS011;52947;50.842;6.084;2023-04-07T03:43:24;34.92;;;18.02;;
66143;SDS011;52947;50.842;6.084;2023-04-07T03:45:52;35.75;;;17.88;;
66143;SDS011;52947;50.842;6.084;2023-04-07T03:48:21;35.22;;;18.27;;
66143;SDS011;52947;50.842;6.084;2023-04-07T03:50:59;36.63;;;18.67;;
66143;SDS011;52947;50.842;6.084;2023-04-07T03:53:27;32.03;;;17.55;;
66143;SDS011;52947;50.842;6.084;2023-04-07T03:55:57;39.90;;;17.77;;
66143;SDS011;52947;50.842;6.084;2023-04-07T03:58:47;35.10;;;17.52;;
66143;SDS011;52947;50.842;6.084;2023-04-07T04:03:56;34.00;;;17.08;;
66143;SDS011;52947;50.842;6.084;2023-04-07T04:06:26;35.95;;;18.10;;
66143;SDS011;52947;50.842;6.084;2023-04-07T04:09:02;29.38;;;12.80;;
66143;SDS011;52947;50.842;6.084;2023-04-07T04:11:35;28.73;;;14.85;;
66143;SDS011;52947;50.842;6.084;2023-04-07T04:14:04;32.30;;;13.88;;
66143;SDS011;52947;50.842;6.084;2023-04-07T04:16:34;25.15;;;13.32;;
66143;SDS011;52947;50.842;6.084;2023-04-07T04:19:08;31.23;;;15.30;;
66143;SDS011;52947;50.842;6.084;2023-04-07T04:21:36;30.58;;;15.80;;
66143;SDS011;52947;50.842;6.084;2023-04-07T04:24:05;19.88;;;11.25;;
66143;SDS011;52947;50.842;6.084;2023-04-07T04:26:34;28.38;;;15.10;;
66143;SDS011;52947;50.842;6.084;2023-04-07T04:29:09;31.50;;;15.70;;
66143;SDS011;52947;50.842;6.084;2023-04-07T04:31:38;33.90;;;15.48;;
66143;SDS011;52947;50.842;6.084;2023-04-07T04:34:07;27.33;;;14.57;;
66143;SDS011;52947;50.842;6.084;2023-04-07T04:36:38;34.60;;;15.77;;
66143;SDS011;52947;50.842;6.084;2023-04-07T04:39:07;28.23;;;13.82;;
66143;SDS011;52947;50.842;6.084;2023-04-07T04:41:36;26.15;;;13.27;;
66143;SDS011;52947;50.842;6.084;2023-04-07T04:44:05;23.38;;;13.88;;
66143;SDS011;52947;50.842;6.084;2023-04-07T04:46:33;29.73;;;15.23;;
66143;SDS011;52947;50.842;6.084;2023-04-07T04:49:01;25.48;;;13.95;;
66143;SDS011;52947;50.842;6.084;2023-04-07T04:51:30;27.50;;;15.10;;
66143;SDS011;52947;50.842;6.084;2023-04-07T04:54:04;26.13;;;14.15;;
66143;SDS011;52947;50.842;6.084;2023-04-07T04:56:32;31.40;;;15.88;;
66143;SDS011;52947;50.842;6.084;2023-04-07T04:59:03;26.33;;;12.15;;
66143;SDS011;52947;50.842;6.084;2023-04-07T05:01:40;25.73;;;13.47;;
66143;SDS011;52947;50.842;6.084;2023-04-07T05:04:12;20.27;;;11.20;;
66143;SDS011;52947;50.842;6.084;2023-04-07T05:06:46;26.20;;;12.75;;
66143;SDS011;52947;50.842;6.084;2023-04-07T05:09:17;21.73;;;12.25;;
66143;SDS011;52947;50.842;6.084;2023-04-07T05:11:47;20.70;;;10.77;;
66143;SDS011;52947;50.842;6.084;2023-04-07T05:14:16;24.70;;;15.18;;
66143;SDS011;52947;50.842;6.084;2023-04-07T05:16:51;30.95;;;15.57;;
66143;SDS011;52947;50.842;6.084;2023-04-07T05:19:24;27.48;;;13.98;;
66143;SDS011;52947;50.842;6.084;2023-04-07T05:21:55;25.02;;;12.93;;
66143;SDS011;52947;50.842;6.084;2023-04-07T05:24:24;27.45;;;16.67;;
66143;SDS011;52947;50.842;6.084;2023-04-07T05:26:57;25.13;;;15.07;;
66143;SDS011;52947;50.842;6.084;2023-04-07T05:29:26;24.77;;;13.98;;
66143;SDS011;52947;50.842;6.084;2023-04-07T05:31:54;22.75;;;12.10;;
66143;SDS011;52947;50.842;6.084;2023-04-07T05:34:22;23.95;;;12.85;;
66143;SDS011;52947;50.842;6.084;2023-04-07T05:36:53;18.25;;;10.95;;
66143;SDS011;52947;50.842;6.084;2023-04-07T05:39:22;26.67;;;13.25;;
66143;SDS011;52947;50.842;6.084;2023-04-07T05:41:53;19.00;;;10.30;;
66143;SDS011;52947;50.842;6.084;2023-04-07T05:44:24;22.17;;;9.32;;
66143;SDS011;52947;50.842;6.084;2023-04-07T05:46:54;16.75;;;9.32;;
66143;SDS011;52947;50.842;6.084;2023-04-07T05:49:24;20.15;;;9.15;;
66143;SDS011;52947;50.842;6.084;2023-04-07T05:52:00;19.23;;;9.68;;
66143;SDS011;52947;50.842;6.084;2023-04-07T05:54:28;16.30;;;9.90;;
66143;SDS011;52947;50.842;6.084;2023-04-07T05:56:59;17.20;;;9.32;;
66143;SDS011;52947;50.842;6.084;2023-04-07T05:59:28;16.80;;;7.95;;
66143;SDS011;52947;50.842;6.084;2023-04-07T06:01:58;11.95;;;7.47;;
66143;SDS011;52947;50.842;6.084;2023-04-07T06:04:26;15.52;;;8.38;;
66143;SDS011;52947;50.842;6.084;2023-04-07T06:06:54;16.98;;;8.02;;
66143;SDS011;52947;50.842;6.084;2023-04-07T06:09:22;15.30;;;7.35;;
66143;SDS011;52947;50.842;6.084;2023-04-07T06:11:50;14.23;;;7.65;;
66143;SDS011;52947;50.842;6.084;2023-04-07T06:14:19;14.38;;;7.25;;
66143;SDS011;52947;50.842;6.084;2023-04-07T06:16:47;14.63;;;7.20;;
66143;SDS011;52947;50.842;6.084;2023-04-07T06:19:16;13.25;;;6.93;;
66143;SDS011;52947;50.842;6.084;2023-04-07T06:21:44;13.13;;;6.82;;
66143;SDS011;52947;50.842;6.084;2023-04-07T06:24:12;13.93;;;7.05;;
66143;SDS011;52947;50.842;6.084;2023-04-07T06:26:40;13.13;;;6.68;;
66143;SDS011;52947;50.842;6.084;2023-04-07T06:29:08;14.30;;;5.90;;
66143;SDS011;52947;50.842;6.084;2023-04-07T06:31:36;11.18;;;6.32;;
66143;SDS011;52947;50.842;6.084;2023-04-07T06:34:04;13.07;;;6.47;;
66143;SDS011;52947;50.842;6.084;2023-04-07T06:36:34;15.82;;;6.47;;
66143;SDS011;52947;50.842;6.084;2023-04-07T06:41:30;13.30;;;7.13;;
66143;SDS011;52947;50.842;6.084;2023-04-07T06:43:58;17.58;;;6.85;;
66143;SDS011;52947;50.842;6.084;2023-04-07T06:46:26;10.43;;;5.68;;
66143;SDS011;52947;50.842;6.084;2023-04-07T06:48:54;9.77;;;5.68;;
66143;SDS011;52947;50.842;6.084;2023-04-07T06:51:22;13.05;;;5.95;;
66143;SDS011;52947;50.842;6.084;2023-04-07T06:53:51;12.93;;;6.20;;
66143;SDS011;52947;50.842;6.084;2023-04-07T06:56:19;12.70;;;6.50;;
66143;SDS011;52947;50.842;6.084;2023-04-07T06:58:49;11.00;;;5.88;;
66143;SDS011;52947;50.842;6.084;2023-04-07T07:01:17;16.65;;;6.78;;
66143;SDS011;52947;50.842;6.084;2023-04-07T07:03:45;13.25;;;6.93;;
66143;SDS011;52947;50.842;6.084;2023-04-07T07:06:13;13.18;;;7.03;;
66143;SDS011;52947;50.842;6.084;2023-04-07T07:08:41;18.27;;;8.35;;
66143;SDS011;52947;50.842;6.084;2023-04-07T07:11:10;11.57;;;6.57;;
66143;SDS011;52947;50.842;6.084;2023-04-07T07:13:38;25.80;;;11.98;;
66143;SDS011;52947;50.842;6.084;2023-04-07T07:16:06;10.73;;;6.38;;
66143;SDS011;52947;50.842;6.084;2023-04-07T07:18:34;17.63;;;8.80;;
66143;SDS011;52947;50.842;6.084;2023-04-07T07:21:03;15.52;;;8.40;;
66143;SDS011;52947;50.842;6.084;2023-04-07T07:23:31;17.02;;;8.55;;
66143;SDS011;52947;50.842;6.084;2023-04-07T07:25:59;14.18;;;8.10;;
66143;SDS011;52947;50.842;6.084;2023-04-07T07:28:28;12.38;;;7.65;;
66143;SDS011;52947;50.842;6.084;2023-04-07T07:30:56;16.50;;;7.57;;
66143;SDS011;52947;50.842;6.084;2023-04-07T07:33:24;15.70;;;7.22;;
66143;SDS011;52947;50.842;6.084;2023-04-07T07:35:52;12.63;;;7.32;;
66143;SDS011;52947;50.842;6.084;2023-04-07T07:38:20;15.15;;;7.20;;
66143;SDS011;52947;50.842;6.084;2023-04-07T07:40:48;14.15;;;7.13;;
66143;SDS011;52947;50.842;6.084;2023-04-07T07:43:16;17.25;;;7.60;;
66143;SDS011;52947;50.842;6.084;2023-04-07T07:45:45;18.23;;;8.20;;
66143;SDS011;52947;50.842;6.084;2023-04-07T07:48:13;14.52;;;8.18;;
66143;SDS011;52947;50.842;6.084;2023-04-07T07:50:41;19.17;;;8.40;;
66143;SDS011;52947;50.842;6.084;2023-04-07T07:53:09;15.57;;;7.78;;
66143;SDS011;52947;50.842;6.084;2023-04-07T07:55:37;18.80;;;8.48;;
66143;SDS011;52947;50.842;6.084;2023-04-07T07:58:05;18.92;;;8.48;;
66143;SDS011;52947;50.842;6.084;2023-04-07T08:00:33;16.42;;;8.52;;
66143;SDS011;52947;50.842;6.084;2023-04-07T08:03:03;18.15;;;8.27;;
66143;SDS011;52947;50.842;6.084;2023-04-07T08:05:31;20.60;;;11.02;;
66143;SDS011;52947;50.842;6.084;2023-04-07T08:07:59;17.25;;;9.23;;
66143;SDS011;52947;50.842;6.084;2023-04-07T08:10:28;15.55;;;8.02;;
66143;SDS011;52947;50.842;6.084;2023-04-07T08:12:56;20.45;;;8.55;;
66143;SDS011;52947;50.842;6.084;2023-04-07T08:15:24;18.35;;;8.95;;
66143;SDS011;52947;50.842;6.084;2023-04-07T08:17:52;19.73;;;8.50;;
66143;SDS011;52947;50.842;6.084;2023-04-07T08:22:51;22.00;;;9.32;;
66143;SDS011;52947;50.842;6.084;2023-04-07T08:25:19;21.45;;;9.98;;
66143;SDS011;52947;50.842;6.084;2023-04-07T08:27:47;22.02;;;9.95;;
66143;SDS011;52947;50.842;6.084;2023-04-07T08:30:15;19.80;;;10.45;;
66143;SDS011;52947;50.842;6.084;2023-04-07T08:32:43;20.52;;;10.85;;
66143;SDS011;52947;50.842;6.084;2023-04-07T08:35:11;22.85;;;11.45;;
66143;SDS011;52947;50.842;6.084;2023-04-07T08:37:41;21.95;;;11.73;;
66143;SDS011;52947;50.842;6.084;2023-04-07T08:40:10;23.67;;;11.80;;
66143;SDS011;52947;50.842;6.084;2023-04-07T08:42:40;19.10;;;11.10;;
66143;SDS011;52947;50.842;6.084;2023-04-07T08:45:10;27.55;;;12.43;;
66143;SDS011;52947;50.842;6.084;2023-04-07T08:47:39;25.98;;;10.63;;
66143;SDS011;52947;50.842;6.084;2023-04-07T08:50:08;21.60;;;10.90;;
66143;SDS011;52947;50.842;6.084;2023-04-07T08:52:39;21.95;;;11.63;;
66143;SDS011;52947;50.842;6.084;2023-04-07T08:55:11;21.60;;;11.55;;
66143;SDS011;52947;50.842;6.084;2023-04-07T08:57:40;23.58;;;12.38;;
66143;SDS011;52947;50.842;6.084;2023-04-07T09:00:08;25.95;;;11.13;;
66143;SDS011;52947;50.842;6.084;2023-04-07T09:02:38;20.75;;;9.90;;
66143;SDS011;52947;50.842;6.084;2023-04-07T09:05:07;15.98;;;9.13;;
66143;SDS011;52947;50.842;6.084;2023-04-07T09:07:36;18.55;;;8.85;;
66143;SDS011;52947;50.842;6.084;2023-04-07T09:10:07;21.50;;;10.88;;
66143;SDS011;52947;50.842;6.084;2023-04-07T09:12:35;12.45;;;6.80;;
66143;SDS011;52947;50.842;6.084;2023-04-07T09:15:04;13.00;;;7.82;;
66143;SDS011;52947;50.842;6.084;2023-04-07T09:17:33;17.60;;;9.10;;
66143;SDS011;52947;50.842;6.084;2023-04-07T09:20:01;18.33;;;9.27;;
66143;SDS011;52947;50.842;6.084;2023-04-07T09:22:34;13.98;;;6.60;;
66143;SDS011;52947;50.842;6.084;2023-04-07T09:25:12;12.80;;;6.25;;
66143;SDS011;52947;50.842;6.084;2023-04-07T09:27:52;13.65;;;7.50;;
66143;SDS011;52947;50.842;6.084;2023-04-07T09:30:21;11.93;;;6.85;;
66143;SDS011;52947;50.842;6.084;2023-04-07T09:32:49;12.30;;;5.65;;
66143;SDS011;52947;50.842;6.084;2023-04-07T09:35:17;12.45;;;6.78;;
66143;SDS011;52947;50.842;6.084;2023-04-07T09:38:01;11.60;;;6.55;;
66143;SDS011;52947;50.842;6.084;2023-04-07T09:40:32;12.25;;;6.95;;
66143;SDS011;52947;50.842;6.084;2023-04-07T09:43:00;13.05;;;7.00;;
66143;SDS011;52947;50.842;6.084;2023-04-07T09:45:30;12.50;;;6.55;;
66143;SDS011;52947;50.842;6.084;2023-04-07T09:48:05;11.52;;;6.75;;
66143;SDS011;52947;50.842;6.084;2023-04-07T09:50:34;10.68;;;5.72;;
66143;SDS011;52947;50.842;6.084;2023-04-07T09:53:03;11.68;;;5.60;;
66143;SDS011;52947;50.842;6.084;2023-04-07T09:55:32;8.57;;;5.53;;
66143;SDS011;52947;50.842;6.084;2023-04-07T09:58:01;11.00;;;6.43;;
66143;SDS011;52947;50.842;6.084;2023-04-07T10:00:31;12.40;;;6.40;;
66143;SDS011;52947;50.842;6.084;2023-04-07T10:02:59;9.90;;;5.68;;
66143;SDS011;52947;50.842;6.084;2023-04-07T10:07:57;13.70;;;7.30;;
66143;SDS011;52947;50.842;6.084;2023-04-07T10:10:27;15.07;;;6.82;;
66143;SDS011;52947;50.842;6.084;2023-04-07T10:12:57;13.77;;;6.47;;
66143;SDS011;52947;50.842;6.084;2023-04-07T10:15:25;12.95;;;7.50;;
66143;SDS011;52947;50.842;6.084;2023-04-07T10:17:53;15.85;;;7.53;;
66143;SDS011;52947;50.842;6.084;2023-04-07T10:20:22;13.68;;;6.93;;
66143;SDS011;52947;50.842;6.084;2023-04-07T10:22:51;15.93;;;6.13;;
66143;SDS011;52947;50.842;6.084;2023-04-07T10:25:22;10.07;;;6.15;;
66143;SDS011;52947;50.842;6.084;2023-04-07T10:27:52;12.68;;;6.45;;
66143;SDS011;52947;50.842;6.084;2023-04-07T10:30:28;11.88;;;7.22;;
66143;SDS011;52947;50.842;6.084;2023-04-07T10:32:57;14.48;;;6.97;;
66143;SDS011;52947;50.842;6.084;2023-04-07T10:35:25;14.98;;;6.80;;
66143;SDS011;52947;50.842;6.084;2023-04-07T10:38:09;13.90;;;6.03;;
66143;SDS011;52947;50.842;6.084;2023-04-07T10:40:40;13.43;;;6.68;;
66143;SDS011;52947;50.842;6.084;2023-04-07T10:43:09;11.82;;;6.05;;
66143;SDS011;52947;50.842;6.084;2023-04-07T10:45:54;11.45;;;6.00;;
66143;SDS011;52947;50.842;6.084;2023-04-07T10:48:25;11.07;;;6.18;;
66143;SDS011;52947;50.842;6.084;2023-04-07T10:51:12;10.93;;;6.10;;
66143;SDS011;52947;50.842;6.084;2023-04-07T10:59:40;13.82;;;6.47;;
66143;SDS011;52947;50.842;6.084;2023-04-07T11:02:32;14.93;;;6.78;;
66143;SDS011;52947;50.842;6.084;2023-04-07T11:05:02;11.57;;;6.47;;
66143;SDS011;52947;50.842;6.084;2023-04-07T11:07:46;12.57;;;6.60;;
66143;SDS011;52947;50.842;6.084;2023-04-07T11:10:16;10.50;;;5.85;;
66143;SDS011;52947;50.842;6.084;2023-04-07T11:12:56;10.40;;;6.10;;
66143;SDS011;52947;50.842;6.084;2023-04-07T11:15:25;11.48;;;6.30;;
66143;SDS011;52947;50.842;6.084;2023-04-07T11:20:50;13.10;;;4.88;;
66143;SDS011;52947;50.842;6.084;2023-04-07T11:23:20;9.30;;;4.32;;
66143;SDS011;52947;50.842;6.084;2023-04-07T11:25:51;9.02;;;5.22;;
66143;SDS011;52947;50.842;6.084;2023-04-07T11:28:25;8.65;;;5.00;;
66143;SDS011;52947;50.842;6.084;2023-04-07T11:30:53;9.23;;;5.18;;
66143;SDS011;52947;50.842;6.084;2023-04-07T11:33:24;11.20;;;5.22;;
66143;SDS011;52947;50.842;6.084;2023-04-07T11:35:53;13.18;;;5.72;;
66143;SDS011;52947;50.842;6.084;2023-04-07T11:38:22;9.18;;;5.32;;
66143;SDS011;52947;50.842;6.084;2023-04-07T11:40:52;12.13;;;6.05;;
66143;SDS011;52947;50.842;6.084;2023-04-07T11:43:21;10.32;;;5.88;;
66143;SDS011;52947;50.842;6.084;2023-04-07T11:46:03;10.25;;;6.05;;
66143;SDS011;52947;50.842;6.084;2023-04-07T11:48:37;9.85;;;5.78;;
66143;SDS011;52947;50.842;6.084;2023-04-07T11:51:06;10.57;;;5.72;;
66143;SDS011;52947;50.842;6.084;2023-04-07T11:53:42;10.50;;;6.78;;
66143;SDS011;52947;50.842;6.084;2023-04-07T11:56:12;10.60;;;6.32;;
66143;SDS011;52947;50.842;6.084;2023-04-07T11:58:47;10.25;;;6.15;;
66143;SDS011;52947;50.842;6.084;2023-04-07T12:01:15;12.10;;;7.05;;
66143;SDS011;52947;50.842;6.084;2023-04-07T12:03:57;10.65;;;7.13;;
66143;SDS011;52947;50.842;6.084;2023-04-07T12:06:28;11.55;;;7.13;;
66143;SDS011;52947;50.842;6.084;2023-04-07T12:08:58;13.60;;;7.95;;
66143;SDS011;52947;50.842;6.084;2023-04-07T12:11:27;15.13;;;8.10;;
66143;SDS011;52947;50.842;6.084;2023-04-07T12:13:57;13.65;;;7.40;;
66143;SDS011;52947;50.842;6.084;2023-04-07T12:16:25;14.93;;;8.30;;
66143;SDS011;52947;50.842;6.084;2023-04-07T12:18:54;12.77;;;7.88;;
66143;SDS011;52947;50.842;6.084;2023-04-07T12:21:24;10.80;;;6.95;;
66143;SDS011;52947;50.842;6.084;2023-04-07T12:23:52;11.48;;;7.32;;
66143;SDS011;52947;50.842;6.084;2023-04-07T12:26:19;13.10;;;7.20;;
66143;SDS011;52947;50.842;6.084;2023-04-07T12:28:48;15.73;;;8.05;;
66143;SDS011;52947;50.842;6.084;2023-04-07T12:31:16;10.57;;;6.60;;
66143;SDS011;52947;50.842;6.084;2023-04-07T12:33:44;11.90;;;6.00;;
66143;SDS011;52947;50.842;6.084;2023-04-07T12:36:14;8.75;;;6.38;;
66143;SDS011;52947;50.842;6.084;2023-04-07T12:38:43;9.93;;;6.30;;
66143;SDS011;52947;50.842;6.084;2023-04-07T12:41:12;8.82;;;5.60;;
66143;SDS011;52947;50.842;6.084;2023-04-07T12:43:40;7.18;;;4.75;;
66143;SDS011;52947;50.842;6.084;2023-04-07T12:48:37;9.45;;;4.93;;
66143;SDS011;52947;50.842;6.084;2023-04-07T12:51:05;9.48;;;5.43;;
66143;SDS011;52947;50.842;6.084;2023-04-07T12:53:33;7.13;;;4.70;;
66143;SDS011;52947;50.842;6.084;2023-04-07T12:56:02;11.73;;;5.13;;
66143;SDS011;52947;50.842;6.084;2023-04-07T12:58:30;9.68;;;4.95;;
66143;SDS011;52947;50.842;6.084;2023-04-07T13:00:58;10.88;;;5.30;;
66143;SDS011;52947;50.842;6.084;2023-04-07T13:03:27;9.90;;;5.43;;
66143;SDS011;52947;50.842;6.084;2023-04-07T13:05:55;11.20;;;5.43;;
66143;SDS011;52947;50.842;6.084;2023-04-07T13:08:26;11.02;;;6.13;;
66143;SDS011;52947;50.842;6.084;2023-04-07T13:10:54;13.13;;;6.78;;
66143;SDS011;52947;50.842;6.084;2023-04-07T13:13:24;12.48;;;7.53;;
66143;SDS011;52947;50.842;6.084;2023-04-07T13:15:51;12.75;;;6.70;;
66143;SDS011;52947;50.842;6.084;2023-04-07T13:18:19;13.02;;;7.00;;
66143;SDS011;52947;50.842;6.084;2023-04-07T13:20:47;10.10;;;6.07;;
66143;SDS011;52947;50.842;6.084;2023-04-07T13:23:35;12.38;;;6.50;;
66143;SDS011;52947;50.842;6.084;2023-04-07T13:26:09;12.02;;;6.20;;
66143;SDS011;52947;50.842;6.084;2023-04-07T13:28:38;13.10;;;5.63;;
66143;SDS011;52947;50.842;6.084;2023-04-07T13:31:06;9.63;;;5.70;;
66143;SDS011;52947;50.842;6.084;2023-04-07T13:33:37;10.95;;;5.57;;
66143;SDS011;52947;50.842;6.084;2023-04-07T13:36:06;14.10;;;5.65;;
66143;SDS011;52947;50.842;6.084;2023-04-07T13:38:34;10.93;;;5.40;;
66143;SDS011;52947;50.842;6.084;2023-04-07T13:41:02;8.35;;;5.07;;
66143;SDS011;52947;50.842;6.084;2023-04-07T13:43:30;9.73;;;5.20;;
66143;SDS011;52947;50.842;6.084;2023-04-07T13:45:59;8.80;;;5.13;;
66143;SDS011;52947;50.842;6.084;2023-04-07T13:50:55;7.00;;;4.90;;
66143;SDS011;52947;50.842;6.084;2023-04-07T13:53:23;10.02;;;4.40;;
66143;SDS011;52947;50.842;6.084;2023-04-07T13:55:50;8.95;;;4.68;;
66143;SDS011;52947;50.842;6.084;2023-04-07T13:58:18;10.10;;;4.60;;
66143;SDS011;52947;50.842;6.084;2023-04-07T14:00:46;6.35;;;3.85;;
66143;SDS011;52947;50.842;6.084;2023-04-07T14:03:15;8.40;;;4.82;;
66143;SDS011;52947;50.842;6.084;2023-04-07T14:05:43;9.35;;;4.53;;
66143;SDS011;52947;50.842;6.084;2023-04-07T14:08:11;9.73;;;4.35;;
66143;SDS011;52947;50.842;6.084;2023-04-07T14:10:39;14.35;;;3.67;;
66143;SDS011;52947;50.842;6.084;2023-04-07T14:13:07;7.95;;;4.43;;
66143;SDS011;52947;50.842;6.084;2023-04-07T14:15:35;8.80;;;4.10;;
66143;SDS011;52947;50.842;6.084;2023-04-07T14:18:03;7.65;;;3.67;;
66143;SDS011;52947;50.842;6.084;2023-04-07T14:20:33;7.30;;;4.03;;
66143;SDS011;52947;50.842;6.084;2023-04-07T14:23:01;7.72;;;4.50;;
66143;SDS011;52947;50.842;6.084;2023-04-07T14:25:29;8.00;;;4.65;;
66143;SDS011;52947;50.842;6.084;2023-04-07T14:27:56;11.80;;;6.00;;
66143;SDS011;52947;50.842;6.084;2023-04-07T14:30:24;10.77;;;5.68;;
66143;SDS011;52947;50.842;6.084;2023-04-07T14:32:52;10.32;;;5.32;;
66143;SDS011;52947;50.842;6.084;2023-04-07T14:35:20;13.45;;;7.57;;
66143;SDS011;52947;50.842;6.084;2023-04-07T14:37:50;22.00;;;12.50;;
66143;SDS011;52947;50.842;6.084;2023-04-07T14:40:18;12.20;;;5.93;;
66143;SDS011;52947;50.842;6.084;2023-04-07T14:42:46;16.88;;;7.88;;
66143;SDS011;52947;50.842;6.084;2023-04-07T14:45:15;15.18;;;5.70;;
66143;SDS011;52947;50.842;6.084;2023-04-07T14:47:43;17.73;;;6.45;;
66143;SDS011;52947;50.842;6.084;2023-04-07T14:50:11;15.32;;;6.50;;
66143;SDS011;52947;50.842;6.084;2023-04-07T14:52:39;13.27;;;7.10;;
66143;SDS011;52947;50.842;6.084;2023-04-07T14:55:08;17.05;;;5.80;;
66143;SDS011;52947;50.842;6.084;2023-04-07T14:57:36;12.63;;;5.68;;
66143;SDS011;52947;50.842;6.084;2023-04-07T15:00:05;13.43;;;6.25;;
66143;SDS011;52947;50.842;6.084;2023-04-07T15:02:34;11.30;;;6.18;;
66143;SDS011;52947;50.842;6.084;2023-04-07T15:05:03;9.43;;;5.93;;
66143;SDS011;52947;50.842;6.084;2023-04-07T15:07:31;15.57;;;6.47;;
66143;SDS011;52947;50.842;6.084;2023-04-07T15:09:59;7.97;;;5.43;;
66143;SDS011;52947;50.842;6.084;2023-04-07T15:12:28;12.25;;;5.00;;
66143;SDS011;52947;50.842;6.084;2023-04-07T15:14:56;17.95;;;7.35;;
66143;SDS011;52947;50.842;6.084;2023-04-07T15:17:24;14.18;;;7.28;;
66143;SDS011;52947;50.842;6.084;2023-04-07T15:20:09;11.45;;;6.00;;